Terminal Aerodrome Forecast
Issued by NWS

Home | Current Version | Previous Version | Text Only | Print | Product List | Glossary On
Versions: 1 2 3 4 5 6 7 8 9 10 11 12 13 14 15
150
FTUS45 KRIW 170523
TAFRKS
TAF
KRKS 170523Z 1706/1806 21006KT P6SM SCT250
     FM171900 26011G21KT P6SM SCT250
     FM180100 26010KT P6SM SCT250=

USA.gov is the U.S. government's official web portal to all federal, state and local government web resources and services.